Terminal Aerodrome Forecast
Issued by NWS

Home | Current Version | Previous Version | Text Only | Print | Product List | Glossary On
Versions: 1 2 3 4 5 6 7 8 9 10 11 12 13 14
000
FTUS45 KGJT 170540
TAFTEX
TAF
KTEX 170540Z 1706/1806 13004KT P6SM SKC
     FM171000 14004KT P6SM FEW120 SCT200
     FM171700 27007KT P6SM FEW120 SCT200
     FM180200 15005KT P6SM SKC=

USA.gov is the U.S. government's official web portal to all federal, state and local government web resources and services.